sensor_id;sensor_type;location;lat;lon;timestamp;P1;durP1;ratioP1;P2;durP2;ratioP2
40847;SDS011;26570;50.962;5.340;2023-02-01T01:01:24;37.07;;;9.20;;
40847;SDS011;26570;50.962;5.340;2023-02-01T01:04:10;30.30;;;9.73;;
40847;SDS011;26570;50.962;5.340;2023-02-01T01:06:55;33.73;;;9.07;;
40847;SDS011;26570;50.962;5.340;2023-02-01T01:09:40;38.70;;;9.63;;
40847;SDS011;26570;50.962;5.340;2023-02-01T01:12:27;27.53;;;9.17;;
40847;SDS011;26570;50.962;5.340;2023-02-01T01:15:12;31.43;;;8.40;;
40847;SDS011;26570;50.962;5.340;2023-02-01T01:17:57;21.60;;;7.23;;
40847;SDS011;26570;50.962;5.340;2023-02-01T01:20:42;33.37;;;7.40;;
40847;SDS011;26570;50.962;5.340;2023-02-01T01:23:27;29.80;;;7.20;;
40847;SDS011;26570;50.962;5.340;2023-02-01T01:26:17;35.60;;;9.17;;
40847;SDS011;26570;50.962;5.340;2023-02-01T01:29:04;38.23;;;7.87;;
40847;SDS011;26570;50.962;5.340;2023-02-01T01:31:49;29.23;;;8.07;;
40847;SDS011;26570;50.962;5.340;2023-02-01T01:34:34;33.47;;;9.13;;
40847;SDS011;26570;50.962;5.340;2023-02-01T01:37:42;31.57;;;10.43;;
40847;SDS011;26570;50.962;5.340;2023-02-01T01:40:28;31.03;;;9.90;;
40847;SDS011;26570;50.962;5.340;2023-02-01T01:43:14;36.57;;;11.13;;
40847;SDS011;26570;50.962;5.340;2023-02-01T01:46:01;33.93;;;10.23;;
40847;SDS011;26570;50.962;5.340;2023-02-01T01:48:47;35.30;;;11.00;;
40847;SDS011;26570;50.962;5.340;2023-02-01T01:51:37;34.57;;;11.83;;
40847;SDS011;26570;50.962;5.340;2023-02-01T01:54:32;34.17;;;10.95;;
40847;SDS011;26570;50.962;5.340;2023-02-01T01:57:20;32.23;;;11.60;;
40847;SDS011;26570;50.962;5.340;2023-02-01T02:00:12;32.67;;;10.83;;
40847;SDS011;26570;50.962;5.340;2023-02-01T02:03:12;30.43;;;10.53;;
40847;SDS011;26570;50.962;5.340;2023-02-01T02:06:03;38.33;;;12.60;;
40847;SDS011;26570;50.962;5.340;2023-02-01T02:09:09;25.87;;;9.70;;
40847;SDS011;26570;50.962;5.340;2023-02-01T02:12:18;25.47;;;9.23;;
40847;SDS011;26570;50.962;5.340;2023-02-01T02:15:03;28.07;;;9.13;;
40847;SDS011;26570;50.962;5.340;2023-02-01T02:33:34;23.67;;;6.27;;
40847;SDS011;26570;50.962;5.340;2023-02-01T02:53:05;28.73;;;2.67;;
40847;SDS011;26570;50.962;5.340;2023-02-01T02:56:21;26.37;;;2.37;;
40847;SDS011;26570;50.962;5.340;2023-02-01T02:59:26;20.57;;;1.90;;
40847;SDS011;26570;50.962;5.340;2023-02-01T03:02:31;21.33;;;1.90;;
40847;SDS011;26570;50.962;5.340;2023-02-01T03:05:39;21.73;;;2.47;;
40847;SDS011;26570;50.962;5.340;2023-02-01T03:08:29;20.17;;;1.27;;
40847;SDS011;26570;50.962;5.340;2023-02-01T03:11:18;21.63;;;0.90;;
40847;SDS011;26570;50.962;5.340;2023-02-01T03:14:03;29.80;;;1.70;;
40847;SDS011;26570;50.962;5.340;2023-02-01T03:16:51;27.63;;;1.50;;
40847;SDS011;26570;50.962;5.340;2023-02-01T03:20:08;18.73;;;0.90;;
40847;SDS011;26570;50.962;5.340;2023-02-01T03:22:57;24.27;;;1.47;;
40847;SDS011;26570;50.962;5.340;2023-02-01T03:25:47;20.90;;;1.10;;
40847;SDS011;26570;50.962;5.340;2023-02-01T03:28:35;13.47;;;1.00;;
40847;SDS011;26570;50.962;5.340;2023-02-01T03:31:23;15.77;;;1.10;;
40847;SDS011;26570;50.962;5.340;2023-02-01T03:34:10;21.13;;;1.00;;
40847;SDS011;26570;50.962;5.340;2023-02-01T03:36:58;25.47;;;1.40;;
40847;SDS011;26570;50.962;5.340;2023-02-01T03:39:59;24.40;;;1.40;;
40847;SDS011;26570;50.962;5.340;2023-02-01T03:42:50;24.53;;;2.17;;
40847;SDS011;26570;50.962;5.340;2023-02-01T03:45:41;19.80;;;2.30;;
40847;SDS011;26570;50.962;5.340;2023-02-01T03:48:31;22.63;;;2.23;;
40847;SDS011;26570;50.962;5.340;2023-02-01T03:51:19;15.83;;;1.03;;
40847;SDS011;26570;50.962;5.340;2023-02-01T03:54:06;20.10;;;1.67;;
40847;SDS011;26570;50.962;5.340;2023-02-01T03:56:56;17.07;;;1.03;;
40847;SDS011;26570;50.962;5.340;2023-02-01T03:59:44;22.90;;;2.40;;
40847;SDS011;26570;50.962;5.340;2023-02-01T04:02:30;22.77;;;0.93;;
40847;SDS011;26570;50.962;5.340;2023-02-01T04:05:18;22.43;;;1.43;;
40847;SDS011;26570;50.962;5.340;2023-02-01T04:08:04;22.93;;;1.23;;
40847;SDS011;26570;50.962;5.340;2023-02-01T04:10:49;17.57;;;1.07;;
40847;SDS011;26570;50.962;5.340;2023-02-01T04:13:34;19.13;;;1.47;;
40847;SDS011;26570;50.962;5.340;2023-02-01T04:16:19;23.87;;;1.37;;
40847;SDS011;26570;50.962;5.340;2023-02-01T04:19:04;29.00;;;1.63;;
40847;SDS011;26570;50.962;5.340;2023-02-01T04:21:49;28.47;;;2.03;;
40847;SDS011;26570;50.962;5.340;2023-02-01T04:24:57;18.90;;;1.30;;
40847;SDS011;26570;50.962;5.340;2023-02-01T04:27:43;26.17;;;1.93;;
40847;SDS011;26570;50.962;5.340;2023-02-01T04:30:51;19.33;;;1.70;;
40847;SDS011;26570;50.962;5.340;2023-02-01T04:33:35;24.53;;;1.73;;
40847;SDS011;26570;50.962;5.340;2023-02-01T04:36:21;28.53;;;1.77;;
40847;SDS011;26570;50.962;5.340;2023-02-01T04:39:08;27.23;;;1.43;;
40847;SDS011;26570;50.962;5.340;2023-02-01T04:41:53;23.20;;;1.17;;
40847;SDS011;26570;50.962;5.340;2023-02-01T04:44:38;22.80;;;1.30;;
40847;SDS011;26570;50.962;5.340;2023-02-01T04:47:25;23.03;;;1.40;;
40847;SDS011;26570;50.962;5.340;2023-02-01T04:50:10;22.77;;;1.47;;
40847;SDS011;26570;50.962;5.340;2023-02-01T04:52:56;19.50;;;1.00;;
40847;SDS011;26570;50.962;5.340;2023-02-01T04:55:41;30.23;;;1.90;;
40847;SDS011;26570;50.962;5.340;2023-02-01T04:58:27;23.90;;;2.00;;
40847;SDS011;26570;50.962;5.340;2023-02-01T05:01:12;20.83;;;1.83;;
40847;SDS011;26570;50.962;5.340;2023-02-01T05:03:58;21.23;;;1.30;;
40847;SDS011;26570;50.962;5.340;2023-02-01T05:06:44;22.80;;;1.20;;
40847;SDS011;26570;50.962;5.340;2023-02-01T05:09:31;24.70;;;1.47;;
40847;SDS011;26570;50.962;5.340;2023-02-01T05:12:16;33.37;;;1.60;;
40847;SDS011;26570;50.962;5.340;2023-02-01T05:15:20;21.33;;;1.53;;
40847;SDS011;26570;50.962;5.340;2023-02-01T05:18:05;25.00;;;1.97;;
40847;SDS011;26570;50.962;5.340;2023-02-01T05:20:50;29.13;;;1.43;;
40847;SDS011;26570;50.962;5.340;2023-02-01T05:23:35;16.47;;;1.10;;
40847;SDS011;26570;50.962;5.340;2023-02-01T05:26:40;24.43;;;2.00;;
40847;SDS011;26570;50.962;5.340;2023-02-01T05:29:27;24.63;;;1.57;;
40847;SDS011;26570;50.962;5.340;2023-02-01T05:32:12;28.77;;;2.63;;
40847;SDS011;26570;50.962;5.340;2023-02-01T05:34:57;24.73;;;1.50;;
40847;SDS011;26570;50.962;5.340;2023-02-01T05:37:42;17.83;;;1.93;;
40847;SDS011;26570;50.962;5.340;2023-02-01T05:40:27;26.33;;;1.17;;
40847;SDS011;26570;50.962;5.340;2023-02-01T05:43:12;20.00;;;1.07;;
40847;SDS011;26570;50.962;5.340;2023-02-01T05:45:58;16.50;;;1.17;;
40847;SDS011;26570;50.962;5.340;2023-02-01T05:48:43;24.77;;;1.37;;
40847;SDS011;26570;50.962;5.340;2023-02-01T05:51:28;22.30;;;1.07;;
40847;SDS011;26570;50.962;5.340;2023-02-01T05:54:14;27.63;;;1.17;;
40847;SDS011;26570;50.962;5.340;2023-02-01T05:56:58;29.27;;;2.23;;
40847;SDS011;26570;50.962;5.340;2023-02-01T05:59:44;24.53;;;1.50;;
40847;SDS011;26570;50.962;5.340;2023-02-01T06:02:29;27.20;;;2.20;;
40847;SDS011;26570;50.962;5.340;2023-02-01T06:05:15;16.70;;;1.10;;
40847;SDS011;26570;50.962;5.340;2023-02-01T06:08:00;26.10;;;1.70;;
40847;SDS011;26570;50.962;5.340;2023-02-01T06:10:46;19.00;;;1.30;;
40847;SDS011;26570;50.962;5.340;2023-02-01T06:13:31;30.10;;;1.90;;
40847;SDS011;26570;50.962;5.340;2023-02-01T06:16:17;30.27;;;1.77;;
40847;SDS011;26570;50.962;5.340;2023-02-01T06:19:02;22.40;;;1.77;;
40847;SDS011;26570;50.962;5.340;2023-02-01T06:22:10;30.37;;;2.37;;
40847;SDS011;26570;50.962;5.340;2023-02-01T06:24:56;27.03;;;1.43;;
40847;SDS011;26570;50.962;5.340;2023-02-01T06:27:42;18.03;;;1.50;;
40847;SDS011;26570;50.962;5.340;2023-02-01T06:30:29;22.10;;;1.73;;
40847;SDS011;26570;50.962;5.340;2023-02-01T06:33:15;27.20;;;1.20;;
40847;SDS011;26570;50.962;5.340;2023-02-01T06:36:03;33.50;;;2.40;;
40847;SDS011;26570;50.962;5.340;2023-02-01T06:38:50;28.43;;;2.00;;
40847;SDS011;26570;50.962;5.340;2023-02-01T06:41:35;22.97;;;1.40;;
40847;SDS011;26570;50.962;5.340;2023-02-01T06:44:20;28.37;;;2.60;;
40847;SDS011;26570;50.962;5.340;2023-02-01T06:47:05;28.77;;;1.43;;
40847;SDS011;26570;50.962;5.340;2023-02-01T06:49:51;24.90;;;2.03;;
40847;SDS011;26570;50.962;5.340;2023-02-01T06:52:36;29.50;;;2.37;;
40847;SDS011;26570;50.962;5.340;2023-02-01T06:55:21;29.57;;;2.03;;
40847;SDS011;26570;50.962;5.340;2023-02-01T06:58:06;23.50;;;1.17;;
40847;SDS011;26570;50.962;5.340;2023-02-01T07:00:52;22.17;;;1.53;;
40847;SDS011;26570;50.962;5.340;2023-02-01T07:03:38;34.40;;;1.57;;
40847;SDS011;26570;50.962;5.340;2023-02-01T07:06:24;26.13;;;1.60;;
40847;SDS011;26570;50.962;5.340;2023-02-01T07:09:32;23.60;;;2.23;;
40847;SDS011;26570;50.962;5.340;2023-02-01T07:12:18;30.67;;;1.63;;
40847;SDS011;26570;50.962;5.340;2023-02-01T07:15:03;27.77;;;2.30;;
40847;SDS011;26570;50.962;5.340;2023-02-01T07:17:49;27.70;;;1.90;;
40847;SDS011;26570;50.962;5.340;2023-02-01T07:20:35;26.13;;;1.60;;
40847;SDS011;26570;50.962;5.340;2023-02-01T07:23:20;26.93;;;2.07;;
40847;SDS011;26570;50.962;5.340;2023-02-01T07:26:06;20.67;;;1.60;;
40847;SDS011;26570;50.962;5.340;2023-02-01T07:28:54;30.80;;;1.63;;
40847;SDS011;26570;50.962;5.340;2023-02-01T07:31:39;21.67;;;2.03;;
40847;SDS011;26570;50.962;5.340;2023-02-01T07:34:24;21.70;;;1.53;;
40847;SDS011;26570;50.962;5.340;2023-02-01T07:37:09;21.93;;;1.30;;
40847;SDS011;26570;50.962;5.340;2023-02-01T07:40:17;36.80;;;3.20;;
40847;SDS011;26570;50.962;5.340;2023-02-01T07:43:12;26.77;;;1.60;;
40847;SDS011;26570;50.962;5.340;2023-02-01T07:45:58;27.03;;;1.77;;
40847;SDS011;26570;50.962;5.340;2023-02-01T07:48:43;21.23;;;1.17;;
40847;SDS011;26570;50.962;5.340;2023-02-01T07:51:29;21.50;;;1.20;;
40847;SDS011;26570;50.962;5.340;2023-02-01T07:54:15;19.23;;;1.30;;
40847;SDS011;26570;50.962;5.340;2023-02-01T07:57:01;24.03;;;2.47;;
40847;SDS011;26570;50.962;5.340;2023-02-01T07:59:45;23.27;;;1.30;;
40847;SDS011;26570;50.962;5.340;2023-02-01T08:03:00;30.33;;;2.40;;
40847;SDS011;26570;50.962;5.340;2023-02-01T08:05:45;26.47;;;2.03;;
40847;SDS011;26570;50.962;5.340;2023-02-01T08:08:58;36.43;;;2.53;;
40847;SDS011;26570;50.962;5.340;2023-02-01T08:11:43;20.10;;;1.30;;
40847;SDS011;26570;50.962;5.340;2023-02-01T08:14:28;34.33;;;2.20;;
40847;SDS011;26570;50.962;5.340;2023-02-01T08:17:14;18.83;;;1.33;;
40847;SDS011;26570;50.962;5.340;2023-02-01T08:20:00;21.33;;;1.53;;
40847;SDS011;26570;50.962;5.340;2023-02-01T08:22:48;21.90;;;1.60;;
40847;SDS011;26570;50.962;5.340;2023-02-01T08:25:38;34.33;;;2.47;;
40847;SDS011;26570;50.962;5.340;2023-02-01T08:28:23;25.63;;;2.00;;
40847;SDS011;26570;50.962;5.340;2023-02-01T08:31:09;31.73;;;2.47;;
40847;SDS011;26570;50.962;5.340;2023-02-01T08:34:01;27.00;;;1.53;;
40847;SDS011;26570;50.962;5.340;2023-02-01T08:36:52;29.60;;;3.67;;
40847;SDS011;26570;50.962;5.340;2023-02-01T08:42:34;20.87;;;1.53;;
40847;SDS011;26570;50.962;5.340;2023-02-01T08:46:00;30.23;;;2.53;;
40847;SDS011;26570;50.962;5.340;2023-02-01T08:49:13;23.10;;;2.00;;
40847;SDS011;26570;50.962;5.340;2023-02-01T08:51:58;28.10;;;1.60;;
40847;SDS011;26570;50.962;5.340;2023-02-01T08:54:44;19.20;;;1.77;;
40847;SDS011;26570;50.962;5.340;2023-02-01T08:57:29;15.97;;;1.20;;
40847;SDS011;26570;50.962;5.340;2023-02-01T09:00:17;19.77;;;1.10;;
40847;SDS011;26570;50.962;5.340;2023-02-01T09:03:09;22.40;;;1.50;;
40847;SDS011;26570;50.962;5.340;2023-02-01T09:06:16;18.53;;;1.43;;
40847;SDS011;26570;50.962;5.340;2023-02-01T09:09:01;26.67;;;2.43;;
40847;SDS011;26570;50.962;5.340;2023-02-01T09:11:46;15.90;;;1.30;;
40847;SDS011;26570;50.962;5.340;2023-02-01T09:14:32;27.37;;;1.10;;
40847;SDS011;26570;50.962;5.340;2023-02-01T09:17:17;25.10;;;2.03;;
40847;SDS011;26570;50.962;5.340;2023-02-01T09:20:25;18.03;;;1.50;;
40847;SDS011;26570;50.962;5.340;2023-02-01T09:23:10;23.87;;;1.70;;
40847;SDS011;26570;50.962;5.340;2023-02-01T09:25:58;25.33;;;2.00;;
40847;SDS011;26570;50.962;5.340;2023-02-01T09:28:48;28.47;;;1.97;;
40847;SDS011;26570;50.962;5.340;2023-02-01T09:31:33;24.20;;;1.93;;
40847;SDS011;26570;50.962;5.340;2023-02-01T09:34:18;24.70;;;1.93;;
40847;SDS011;26570;50.962;5.340;2023-02-01T09:37:04;26.10;;;1.90;;
40847;SDS011;26570;50.962;5.340;2023-02-01T09:39:49;25.73;;;1.80;;
40847;SDS011;26570;50.962;5.340;2023-02-01T09:46:17;22.87;;;1.13;;
40847;SDS011;26570;50.962;5.340;2023-02-01T09:49:15;27.67;;;1.20;;
40847;SDS011;26570;50.962;5.340;2023-02-01T09:52:07;20.57;;;1.30;;
40847;SDS011;26570;50.962;5.340;2023-02-01T09:55:18;23.43;;;1.70;;
40847;SDS011;26570;50.962;5.340;2023-02-01T10:03:49;27.50;;;2.00;;
40847;SDS011;26570;50.962;5.340;2023-02-01T10:14:08;24.07;;;1.57;;
40847;SDS011;26570;50.962;5.340;2023-02-01T10:29:55;32.10;;;1.73;;
40847;SDS011;26570;50.962;5.340;2023-02-01T10:32:44;21.13;;;2.17;;
40847;SDS011;26570;50.962;5.340;2023-02-01T10:35:33;20.00;;;1.87;;
40847;SDS011;26570;50.962;5.340;2023-02-01T10:38:30;23.70;;;1.70;;
40847;SDS011;26570;50.962;5.340;2023-02-01T10:41:20;22.53;;;1.67;;
40847;SDS011;26570;50.962;5.340;2023-02-01T10:44:10;19.43;;;1.93;;
40847;SDS011;26570;50.962;5.340;2023-02-01T10:46:59;18.53;;;1.00;;
40847;SDS011;26570;50.962;5.340;2023-02-01T10:52:52;24.93;;;2.37;;
40847;SDS011;26570;50.962;5.340;2023-02-01T10:58:46;22.17;;;1.50;;
40847;SDS011;26570;50.962;5.340;2023-02-01T11:01:39;11.90;;;1.00;;
40847;SDS011;26570;50.962;5.340;2023-02-01T11:04:26;19.15;;;1.17;;
40847;SDS011;26570;50.962;5.340;2023-02-01T11:10:03;21.20;;;1.10;;
40847;SDS011;26570;50.962;5.340;2023-02-01T11:13:16;21.23;;;1.23;;
40847;SDS011;26570;50.962;5.340;2023-02-01T11:16:33;18.87;;;1.17;;
40847;SDS011;26570;50.962;5.340;2023-02-01T11:20:03;17.83;;;0.90;;
40847;SDS011;26570;50.962;5.340;2023-02-01T11:22:59;14.47;;;1.30;;
40847;SDS011;26570;50.962;5.340;2023-02-01T11:25:49;20.10;;;1.40;;
40847;SDS011;26570;50.962;5.340;2023-02-01T11:28:42;21.07;;;1.20;;
40847;SDS011;26570;50.962;5.340;2023-02-01T11:31:36;16.03;;;1.13;;
40847;SDS011;26570;50.962;5.340;2023-02-01T11:34:28;18.87;;;1.10;;
40847;SDS011;26570;50.962;5.340;2023-02-01T11:37:50;20.23;;;1.37;;
40847;SDS011;26570;50.962;5.340;2023-02-01T11:40:39;19.10;;;1.03;;
40847;SDS011;26570;50.962;5.340;2023-02-01T11:43:28;17.23;;;1.53;;
40847;SDS011;26570;50.962;5.340;2023-02-01T11:46:36;20.13;;;1.10;;
40847;SDS011;26570;50.962;5.340;2023-02-01T11:49:22;13.00;;;0.80;;
40847;SDS011;26570;50.962;5.340;2023-02-01T11:52:22;14.93;;;0.97;;
40847;SDS011;26570;50.962;5.340;2023-02-01T12:02:02;14.90;;;0.70;;
40847;SDS011;26570;50.962;5.340;2023-02-01T12:09:06;14.25;;;0.93;;
40847;SDS011;26570;50.962;5.340;2023-02-01T12:12:08;10.80;;;1.17;;
40847;SDS011;26570;50.962;5.340;2023-02-01T12:15:23;14.73;;;0.83;;
40847;SDS011;26570;50.962;5.340;2023-02-01T12:24:03;20.40;;;1.77;;
40847;SDS011;26570;50.962;5.340;2023-02-01T12:30:44;16.63;;;1.00;;
40847;SDS011;26570;50.962;5.340;2023-02-01T12:40:03;11.10;;;0.70;;
40847;SDS011;26570;50.962;5.340;2023-02-01T12:43:12;11.90;;;0.70;;
40847;SDS011;26570;50.962;5.340;2023-02-01T12:46:10;21.77;;;1.10;;
40847;SDS011;26570;50.962;5.340;2023-02-01T12:49:12;10.87;;;0.70;;
40847;SDS011;26570;50.962;5.340;2023-02-01T12:52:12;12.77;;;0.70;;
40847;SDS011;26570;50.962;5.340;2023-02-01T12:58:09;12.90;;;0.70;;
40847;SDS011;26570;50.962;5.340;2023-02-01T13:07:16;14.53;;;1.20;;
40847;SDS011;26570;50.962;5.340;2023-02-01T13:17:34;14.17;;;1.53;;
40847;SDS011;26570;50.962;5.340;2023-02-01T13:20:29;11.30;;;1.47;;
40847;SDS011;26570;50.962;5.340;2023-02-01T13:23:37;15.50;;;1.27;;
40847;SDS011;26570;50.962;5.340;2023-02-01T13:26:27;13.37;;;1.00;;
40847;SDS011;26570;50.962;5.340;2023-02-01T13:29:12;15.87;;;0.80;;
40847;SDS011;26570;50.962;5.340;2023-02-01T13:32:07;17.83;;;0.83;;
40847;SDS011;26570;50.962;5.340;2023-02-01T13:35:21;10.93;;;1.02;;
40847;SDS011;26570;50.962;5.340;2023-02-01T13:38:39;9.10;;;0.53;;
40847;SDS011;26570;50.962;5.340;2023-02-01T13:41:54;17.13;;;0.70;;
40847;SDS011;26570;50.962;5.340;2023-02-01T13:48:03;11.43;;;0.70;;
40847;SDS011;26570;50.962;5.340;2023-02-01T13:50:51;12.13;;;1.03;;
40847;SDS011;26570;50.962;5.340;2023-02-01T13:53:43;11.03;;;0.80;;
40847;SDS011;26570;50.962;5.340;2023-02-01T13:56:41;7.03;;;0.50;;
40847;SDS011;26570;50.962;5.340;2023-02-01T14:08:23;13.07;;;1.10;;
40847;SDS011;26570;50.962;5.340;2023-02-01T14:11:31;12.40;;;0.50;;
40847;SDS011;26570;50.962;5.340;2023-02-01T14:23:30;17.23;;;0.60;;
40847;SDS011;26570;50.962;5.340;2023-02-01T14:26:27;13.97;;;0.60;;
40847;SDS011;26570;50.962;5.340;2023-02-01T14:29:30;11.20;;;0.60;;
40847;SDS011;26570;50.962;5.340;2023-02-01T14:32:23;18.10;;;0.90;;
40847;SDS011;26570;50.962;5.340;2023-02-01T14:35:24;14.53;;;0.60;;
40847;SDS011;26570;50.962;5.340;2023-02-01T14:38:11;15.53;;;0.60;;
40847;SDS011;26570;50.962;5.340;2023-02-01T14:41:10;13.47;;;0.70;;
40847;SDS011;26570;50.962;5.340;2023-02-01T14:50:27;15.17;;;0.60;;
40847;SDS011;26570;50.962;5.340;2023-02-01T14:53:43;13.63;;;0.80;;
40847;SDS011;26570;50.962;5.340;2023-02-01T14:56:27;12.50;;;0.60;;
40847;SDS011;26570;50.962;5.340;2023-02-01T14:59:13;8.47;;;0.70;;
40847;SDS011;26570;50.962;5.340;2023-02-01T15:02:01;9.23;;;0.50;;
40847;SDS011;26570;50.962;5.340;2023-02-01T15:05:32;15.17;;;0.80;;
40847;SDS011;26570;50.962;5.340;2023-02-01T15:08:19;19.30;;;0.97;;
40847;SDS011;26570;50.962;5.340;2023-02-01T15:11:32;11.13;;;0.67;;
40847;SDS011;26570;50.962;5.340;2023-02-01T15:14:39;8.97;;;0.73;;
40847;SDS011;26570;50.962;5.340;2023-02-01T15:17:28;16.30;;;1.07;;
40847;SDS011;26570;50.962;5.340;2023-02-01T15:20:19;17.40;;;1.20;;
40847;SDS011;26570;50.962;5.340;2023-02-01T15:23:15;18.97;;;1.20;;
40847;SDS011;26570;50.962;5.340;2023-02-01T15:26:28;10.17;;;0.87;;
40847;SDS011;26570;50.962;5.340;2023-02-01T15:29:15;8.60;;;0.70;;
40847;SDS011;26570;50.962;5.340;2023-02-01T15:32:00;11.73;;;0.70;;
40847;SDS011;26570;50.962;5.340;2023-02-01T15:34:50;14.00;;;1.00;;
40847;SDS011;26570;50.962;5.340;2023-02-01T15:37:37;14.17;;;0.57;;
40847;SDS011;26570;50.962;5.340;2023-02-01T15:40:22;14.23;;;0.67;;
40847;SDS011;26570;50.962;5.340;2023-02-01T15:43:32;16.37;;;1.03;;
40847;SDS011;26570;50.962;5.340;2023-02-01T15:46:24;13.83;;;0.60;;
40847;SDS011;26570;50.962;5.340;2023-02-01T15:49:18;12.93;;;0.63;;
40847;SDS011;26570;50.962;5.340;2023-02-01T15:58:29;13.50;;;0.87;;
40847;SDS011;26570;50.962;5.340;2023-02-01T16:01:38;10.83;;;1.37;;
40847;SDS011;26570;50.962;5.340;2023-02-01T16:04:26;12.23;;;0.70;;
40847;SDS011;26570;50.962;5.340;2023-02-01T16:07:25;14.97;;;1.17;;
40847;SDS011;26570;50.962;5.340;2023-02-01T16:10:38;23.63;;;0.97;;
40847;SDS011;26570;50.962;5.340;2023-02-01T16:13:23;21.67;;;1.37;;
40847;SDS011;26570;50.962;5.340;2023-02-01T16:16:08;15.43;;;0.70;;
40847;SDS011;26570;50.962;5.340;2023-02-01T16:18:57;10.97;;;1.10;;
40847;SDS011;26570;50.962;5.340;2023-02-01T16:22:05;18.93;;;0.63;;
40847;SDS011;26570;50.962;5.340;2023-02-01T16:24:50;20.77;;;2.27;;
40847;SDS011;26570;50.962;5.340;2023-02-01T16:27:36;20.40;;;2.20;;
40847;SDS011;26570;50.962;5.340;2023-02-01T16:30:21;20.80;;;0.93;;
40847;SDS011;26570;50.962;5.340;2023-02-01T16:33:11;18.17;;;1.33;;
40847;SDS011;26570;50.962;5.340;2023-02-01T16:36:03;14.77;;;0.70;;
40847;SDS011;26570;50.962;5.340;2023-02-01T16:39:18;20.08;;;1.20;;
40847;SDS011;26570;50.962;5.340;2023-02-01T16:42:10;18.83;;;1.37;;
40847;SDS011;26570;50.962;5.340;2023-02-01T16:45:00;13.63;;;0.80;;
40847;SDS011;26570;50.962;5.340;2023-02-01T16:48:07;15.70;;;0.93;;
40847;SDS011;26570;50.962;5.340;2023-02-01T16:50:56;14.73;;;0.93;;
40847;SDS011;26570;50.962;5.340;2023-02-01T16:53:45;15.57;;;0.70;;
40847;SDS011;26570;50.962;5.340;2023-02-01T16:56:31;13.43;;;0.80;;
40847;SDS011;26570;50.962;5.340;2023-02-01T16:59:21;11.63;;;1.57;;
40847;SDS011;26570;50.962;5.340;2023-02-01T17:02:09;15.87;;;1.63;;
40847;SDS011;26570;50.962;5.340;2023-02-01T17:04:57;19.53;;;1.03;;
40847;SDS011;26570;50.962;5.340;2023-02-01T17:08:05;15.53;;;1.03;;
40847;SDS011;26570;50.962;5.340;2023-02-01T17:10:52;14.50;;;1.47;;
40847;SDS011;26570;50.962;5.340;2023-02-01T17:13:37;15.73;;;0.93;;
40847;SDS011;26570;50.962;5.340;2023-02-01T17:16:26;23.00;;;1.43;;
40847;SDS011;26570;50.962;5.340;2023-02-01T17:19:21;14.73;;;0.93;;
40847;SDS011;26570;50.962;5.340;2023-02-01T17:22:07;22.37;;;1.20;;
40847;SDS011;26570;50.962;5.340;2023-02-01T17:24:53;22.90;;;3.27;;
40847;SDS011;26570;50.962;5.340;2023-02-01T17:27:38;19.23;;;1.93;;
40847;SDS011;26570;50.962;5.340;2023-02-01T17:30:47;19.00;;;1.57;;
40847;SDS011;26570;50.962;5.340;2023-02-01T17:33:34;25.63;;;1.77;;
40847;SDS011;26570;50.962;5.340;2023-02-01T17:36:21;14.53;;;1.00;;
40847;SDS011;26570;50.962;5.340;2023-02-01T17:39:10;16.07;;;1.47;;
40847;SDS011;26570;50.962;5.340;2023-02-01T17:42:38;17.10;;;1.00;;
40847;SDS011;26570;50.962;5.340;2023-02-01T17:45:55;18.97;;;1.10;;
40847;SDS011;26570;50.962;5.340;2023-02-01T17:48:47;13.73;;;0.80;;
40847;SDS011;26570;50.962;5.340;2023-02-01T17:51:31;22.43;;;1.30;;
40847;SDS011;26570;50.962;5.340;2023-02-01T17:54:16;15.03;;;1.80;;
40847;SDS011;26570;50.962;5.340;2023-02-01T17:57:04;16.60;;;0.93;;
40847;SDS011;26570;50.962;5.340;2023-02-01T18:00:02;19.83;;;0.83;;
40847;SDS011;26570;50.962;5.340;2023-02-01T18:03:00;15.40;;;0.90;;
40847;SDS011;26570;50.962;5.340;2023-02-01T18:05:45;10.80;;;0.93;;
40847;SDS011;26570;50.962;5.340;2023-02-01T18:08:33;16.73;;;0.90;;
40847;SDS011;26570;50.962;5.340;2023-02-01T18:11:42;27.07;;;2.03;;
40847;SDS011;26570;50.962;5.340;2023-02-01T18:14:27;16.07;;;2.20;;
40847;SDS011;26570;50.962;5.340;2023-02-01T18:17:13;13.50;;;1.13;;
40847;SDS011;26570;50.962;5.340;2023-02-01T18:20:00;23.77;;;0.80;;
40847;SDS011;26570;50.962;5.340;2023-02-01T18:23:13;19.60;;;1.20;;
40847;SDS011;26570;50.962;5.340;2023-02-01T18:26:01;19.93;;;0.90;;
40847;SDS011;26570;50.962;5.340;2023-02-01T18:28:47;14.90;;;1.30;;
40847;SDS011;26570;50.962;5.340;2023-02-01T18:31:33;16.47;;;0.93;;
40847;SDS011;26570;50.962;5.340;2023-02-01T18:34:21;23.67;;;1.00;;
40847;SDS011;26570;50.962;5.340;2023-02-01T18:37:30;25.00;;;2.37;;
40847;SDS011;26570;50.962;5.340;2023-02-01T18:40:19;18.63;;;1.47;;
40847;SDS011;26570;50.962;5.340;2023-02-01T18:43:09;21.37;;;1.47;;
40847;SDS011;26570;50.962;5.340;2023-02-01T18:45:55;27.23;;;1.87;;
40847;SDS011;26570;50.962;5.340;2023-02-01T18:48:41;20.90;;;1.37;;
40847;SDS011;26570;50.962;5.340;2023-02-01T18:51:29;21.87;;;1.30;;
40847;SDS011;26570;50.962;5.340;2023-02-01T18:54:14;19.53;;;1.40;;
40847;SDS011;26570;50.962;5.340;2023-02-01T18:57:02;25.20;;;1.13;;
40847;SDS011;26570;50.962;5.340;2023-02-01T18:59:49;29.07;;;1.43;;
40847;SDS011;26570;50.962;5.340;2023-02-01T19:02:37;16.80;;;0.93;;
40847;SDS011;26570;50.962;5.340;2023-02-01T19:05:22;14.93;;;1.00;;
40847;SDS011;26570;50.962;5.340;2023-02-01T19:08:08;22.63;;;1.13;;
40847;SDS011;26570;50.962;5.340;2023-02-01T19:10:53;17.10;;;0.97;;
40847;SDS011;26570;50.962;5.340;2023-02-01T19:13:38;22.13;;;1.67;;
40847;SDS011;26570;50.962;5.340;2023-02-01T19:16:30;21.17;;;1.83;;
40847;SDS011;26570;50.962;5.340;2023-02-01T19:19:17;23.73;;;2.50;;
40847;SDS011;26570;50.962;5.340;2023-02-01T19:22:25;15.30;;;1.07;;
40847;SDS011;26570;50.962;5.340;2023-02-01T19:25:17;18.47;;;1.20;;
40847;SDS011;26570;50.962;5.340;2023-02-01T19:28:04;29.20;;;2.23;;
40847;SDS011;26570;50.962;5.340;2023-02-01T19:31:02;24.73;;;1.40;;
40847;SDS011;26570;50.962;5.340;2023-02-01T19:33:48;20.37;;;1.23;;
40847;SDS011;26570;50.962;5.340;2023-02-01T19:36:34;23.40;;;2.27;;
40847;SDS011;26570;50.962;5.340;2023-02-01T19:39:22;25.47;;;1.53;;
40847;SDS011;26570;50.962;5.340;2023-02-01T19:42:08;20.77;;;1.50;;
40847;SDS011;26570;50.962;5.340;2023-02-01T19:44:53;18.67;;;2.00;;
40847;SDS011;26570;50.962;5.340;2023-02-01T19:47:38;19.20;;;1.60;;
40847;SDS011;26570;50.962;5.340;2023-02-01T19:50:23;21.43;;;1.37;;
40847;SDS011;26570;50.962;5.340;2023-02-01T19:53:09;27.20;;;1.53;;
40847;SDS011;26570;50.962;5.340;2023-02-01T19:55:57;17.83;;;1.47;;
40847;SDS011;26570;50.962;5.340;2023-02-01T19:58:44;24.43;;;1.60;;
40847;SDS011;26570;50.962;5.340;2023-02-01T20:01:30;16.80;;;1.00;;
40847;SDS011;26570;50.962;5.340;2023-02-01T20:04:21;26.27;;;1.23;;
40847;SDS011;26570;50.962;5.340;2023-02-01T20:07:06;16.63;;;1.27;;
40847;SDS011;26570;50.962;5.340;2023-02-01T20:09:55;26.13;;;1.67;;
40847;SDS011;26570;50.962;5.340;2023-02-01T20:12:41;18.00;;;1.00;;
40847;SDS011;26570;50.962;5.340;2023-02-01T20:15:28;23.60;;;1.83;;
40847;SDS011;26570;50.962;5.340;2023-02-01T20:18:13;25.03;;;1.50;;
40847;SDS011;26570;50.962;5.340;2023-02-01T20:21:03;27.73;;;1.73;;
40847;SDS011;26570;50.962;5.340;2023-02-01T20:23:49;24.17;;;2.13;;
40847;SDS011;26570;50.962;5.340;2023-02-01T20:26:35;30.40;;;2.10;;
40847;SDS011;26570;50.962;5.340;2023-02-01T20:29:20;22.63;;;1.30;;